<?xml version="1.0" encoding="UTF-8" standalone="no" ?>
<gpx xmlns="http://www.topografix.com/GPX/1/1" xmlns:xsi="http://www.w3.org/2001/XMLSchema-instance" xsi:schemaLocation="http://www.topografix.com/GPX/1/1 http://www.topografix.com/GPX/1/1/gpx.xsd" version="1.1" creator="VisuGPX - https://www.visugpx.com">
  <metadata>
    <name>sejour gov alsace</name>
  </metadata>
  <wpt lat="48.06424" lon="7.02221">
    <ele>1132</ele>
    <name><![CDATA[Col de la Schlucht]]></name>
    <desc><![CDATA[Parking]]></desc>
    <cmt><![CDATA[Parking]]></cmt>
  </wpt>
  <wpt lat="48.04158" lon="7.29947">
    <ele>223</ele>
    <name><![CDATA[Eguisheim]]></name>
  </wpt>
  <wpt lat="48.1793" lon="7.31018">
    <ele>275</ele>
    <name><![CDATA[Hunawihr]]></name>
  </wpt>
  <wpt lat="48.13923" lon="7.25933">
    <ele>251</ele>
    <name><![CDATA[Kaysersberg]]></name>
  </wpt>
  <wpt lat="48.14587" lon="7.25086">
    <ele>290</ele>
    <name><![CDATA[Kaysersberg-CCAS]]></name>
    <desc><![CDATA[3 Rue Rene le Guen]]></desc>
    <cmt><![CDATA[3 Rue Rene le Guen]]></cmt>
  </wpt>
  <wpt lat="48.14668" lon="7.25549">
    <ele>261</ele>
    <name><![CDATA[Kaysersberg-Salle de Sport]]></name>
  </wpt>
  <wpt lat="48.11261" lon="7.10019">
    <ele>958</ele>
    <name><![CDATA[Lac Noir]]></name>
  </wpt>
  <wpt lat="48.17" lon="7.12576">
    <ele>667</ele>
    <name><![CDATA[Le Bonhomme]]></name>
  </wpt>
  <wpt lat="48.05292" lon="6.9482">
    <ele>918</ele>
    <name><![CDATA[Lispach]]></name>
  </wpt>
  <wpt lat="48.16758" lon="7.29424">
    <ele>321</ele>
    <name><![CDATA[Riquewihr]]></name>
  </wpt>
  <wpt lat="48.23274" lon="7.36606">
    <ele>254</ele>
    <name><![CDATA[St-Hippolyte]]></name>
  </wpt>
  <wpt lat="48.22694" lon="7.30439">
    <ele>466</ele>
    <name><![CDATA[Thannenkirch]]></name>
  </wpt>
  <trk>
    <name><![CDATA[01A-Kaysersberg-St Alexis (15 Km-540 m)]]></name>
    <trkseg>
      <trkpt lat="48.14668" lon="7.25549">
        <ele>261</ele>
        <time>2013-11-19T08:05:57Z</time>
      </trkpt>
      <trkpt lat="48.14662" lon="7.25684">
        <ele>264</ele>
        <time>2013-11-19T08:08:41Z</time>
      </trkpt>
      <trkpt lat="48.14584" lon="7.25732">
        <ele>259</ele>
        <time>2013-11-19T08:09:50Z</time>
      </trkpt>
      <trkpt lat="48.14534" lon="7.25763">
        <ele>258</ele>
        <time>2013-11-19T08:10:59Z</time>
      </trkpt>
      <trkpt lat="48.14407" lon="7.25882">
        <ele>256</ele>
        <time>2013-11-19T08:12:02Z</time>
      </trkpt>
      <trkpt lat="48.14324" lon="7.25987">
        <ele>255</ele>
        <time>2013-11-19T08:13:08Z</time>
      </trkpt>
      <trkpt lat="48.14293" lon="7.26017">
        <ele>256</ele>
        <time>2013-11-19T08:14:14Z</time>
      </trkpt>
      <trkpt lat="48.14228" lon="7.26064">
        <ele>258</ele>
        <time>2013-11-19T08:15:34Z</time>
      </trkpt>
      <trkpt lat="48.14182" lon="7.261">
        <ele>263</ele>
        <time>2021-04-26T14:44:49Z</time>
      </trkpt>
      <trkpt lat="48.14117" lon="7.26111">
        <ele>262</ele>
        <time>2013-11-19T08:16:47Z</time>
      </trkpt>
      <trkpt lat="48.14045" lon="7.26125">
        <ele>261</ele>
        <time>2021-04-26T14:44:59Z</time>
      </trkpt>
      <trkpt lat="48.14001" lon="7.2612">
        <ele>258</ele>
        <time>2013-11-19T08:17:58Z</time>
      </trkpt>
      <trkpt lat="48.13992" lon="7.26109">
        <ele>256</ele>
        <time>2021-04-26T14:45:09Z</time>
      </trkpt>
      <trkpt lat="48.13922" lon="7.2614">
        <ele>254</ele>
        <time>2013-11-19T08:19:19Z</time>
      </trkpt>
      <trkpt lat="48.13894" lon="7.26196">
        <ele>253</ele>
        <time>2013-11-19T08:20:15Z</time>
      </trkpt>
      <trkpt lat="48.13877" lon="7.26418">
        <ele>250</ele>
        <time>2013-11-19T08:21:25Z</time>
      </trkpt>
      <trkpt lat="48.13927" lon="7.26418">
        <ele>250</ele>
        <time>2013-11-19T08:23:26Z</time>
      </trkpt>
      <trkpt lat="48.13925" lon="7.26527">
        <ele>248</ele>
        <time>2021-04-26T14:45:34Z</time>
      </trkpt>
      <trkpt lat="48.13939" lon="7.26529">
        <ele>249</ele>
        <time>2021-04-26T14:45:39Z</time>
      </trkpt>
      <trkpt lat="48.13952" lon="7.26591">
        <ele>249</ele>
        <time>2013-11-19T08:24:43Z</time>
      </trkpt>
      <trkpt lat="48.13962" lon="7.26595">
        <ele>250</ele>
        <time>2021-04-26T14:45:49Z</time>
      </trkpt>
      <trkpt lat="48.13977" lon="7.26689">
        <ele>248</ele>
        <time>2013-11-19T08:26:05Z</time>
      </trkpt>
      <trkpt lat="48.13967" lon="7.26836">
        <ele>249</ele>
        <time>2013-11-19T08:27:27Z</time>
      </trkpt>
      <trkpt lat="48.14046" lon="7.26849">
        <ele>262</ele>
        <time>2021-04-26T14:46:04Z</time>
      </trkpt>
      <trkpt lat="48.14072" lon="7.26825">
        <ele>268</ele>
        <time>2021-04-26T14:46:09Z</time>
      </trkpt>
      <trkpt lat="48.14082" lon="7.26827">
        <ele>270</ele>
        <time>2013-11-19T08:31:19Z</time>
      </trkpt>
      <trkpt lat="48.14077" lon="7.26924">
        <ele>269</ele>
        <time>2013-11-19T08:33:24Z</time>
      </trkpt>
      <trkpt lat="48.1406" lon="7.27006">
        <ele>271</ele>
        <time>2021-04-26T14:46:24Z</time>
      </trkpt>
      <trkpt lat="48.14064" lon="7.27063">
        <ele>274</ele>
        <time>2021-04-26T14:46:29Z</time>
      </trkpt>
      <trkpt lat="48.14093" lon="7.27098">
        <ele>283</ele>
        <time>2013-11-19T08:34:54Z</time>
      </trkpt>
      <trkpt lat="48.14098" lon="7.27208">
        <ele>282</ele>
        <time>2013-11-19T08:36:07Z</time>
      </trkpt>
      <trkpt lat="48.1411" lon="7.27282">
        <ele>285</ele>
        <time>2021-04-26T14:46:44Z</time>
      </trkpt>
      <trkpt lat="48.14112" lon="7.27347">
        <ele>284</ele>
        <time>2013-11-19T08:38:13Z</time>
      </trkpt>
      <trkpt lat="48.14122" lon="7.27424">
        <ele>284</ele>
        <time>2021-04-26T14:46:54Z</time>
      </trkpt>
      <trkpt lat="48.14164" lon="7.27511">
        <ele>286</ele>
        <time>2013-11-19T08:39:28Z</time>
      </trkpt>
      <trkpt lat="48.14178" lon="7.27523">
        <ele>290</ele>
        <time>2021-04-26T14:47:04Z</time>
      </trkpt>
      <trkpt lat="48.14232" lon="7.27521">
        <ele>302</ele>
        <time>2013-11-19T08:41:01Z</time>
      </trkpt>
      <trkpt lat="48.14305" lon="7.27478">
        <ele>321</ele>
        <time>2013-11-19T08:44:17Z</time>
      </trkpt>
      <trkpt lat="48.14293" lon="7.27587">
        <ele>326</ele>
        <time>2013-11-19T08:51:18Z</time>
      </trkpt>
      <trkpt lat="48.14227" lon="7.27639">
        <ele>320</ele>
        <time>2013-11-19T08:52:35Z</time>
      </trkpt>
      <trkpt lat="48.14192" lon="7.27786">
        <ele>321</ele>
        <time>2013-11-19T08:54:00Z</time>
      </trkpt>
      <trkpt lat="48.14203" lon="7.27849">
        <ele>321</ele>
        <time>2021-04-26T14:47:34Z</time>
      </trkpt>
      <trkpt lat="48.14226" lon="7.2791">
        <ele>321</ele>
        <time>2013-11-19T08:55:14Z</time>
      </trkpt>
      <trkpt lat="48.14291" lon="7.28">
        <ele>318</ele>
        <time>2013-11-19T08:56:28Z</time>
      </trkpt>
      <trkpt lat="48.14366" lon="7.28075">
        <ele>314</ele>
        <time>2013-11-19T08:57:38Z</time>
      </trkpt>
      <trkpt lat="48.14446" lon="7.28133">
        <ele>307</ele>
        <time>2013-11-19T08:58:47Z</time>
      </trkpt>
      <trkpt lat="48.14478" lon="7.28143">
        <ele>306</ele>
        <time>2021-04-26T14:47:59Z</time>
      </trkpt>
      <trkpt lat="48.14509" lon="7.28135">
        <ele>308</ele>
        <time>2021-04-26T14:48:04Z</time>
      </trkpt>
      <trkpt lat="48.14556" lon="7.28106">
        <ele>312</ele>
        <time>2013-11-19T09:00:12Z</time>
      </trkpt>
      <trkpt lat="48.14641" lon="7.27973">
        <ele>337</ele>
        <time>2013-11-19T09:03:15Z</time>
      </trkpt>
      <trkpt lat="48.14673" lon="7.27947">
        <ele>342</ele>
        <time>2013-11-19T09:05:08Z</time>
      </trkpt>
      <trkpt lat="48.14739" lon="7.27857">
        <ele>360</ele>
        <time>2013-11-19T09:07:02Z</time>
      </trkpt>
      <trkpt lat="48.14795" lon="7.27832">
        <ele>370</ele>
        <time>2021-04-26T14:48:29Z</time>
      </trkpt>
      <trkpt lat="48.14798" lon="7.27813">
        <ele>373</ele>
        <time>2021-04-26T14:48:34Z</time>
      </trkpt>
      <trkpt lat="48.14738" lon="7.27795">
        <ele>372</ele>
        <time>2021-04-26T14:48:39Z</time>
      </trkpt>
      <trkpt lat="48.14667" lon="7.27806">
        <ele>380</ele>
        <time>2013-11-19T09:10:58Z</time>
      </trkpt>
      <trkpt lat="48.14628" lon="7.27836">
        <ele>376</ele>
        <time>2021-04-26T14:48:49Z</time>
      </trkpt>
      <trkpt lat="48.14559" lon="7.27833">
        <ele>385</ele>
        <time>2021-04-26T14:48:54Z</time>
      </trkpt>
      <trkpt lat="48.14496" lon="7.2785">
        <ele>389</ele>
        <time>2013-11-19T09:12:40Z</time>
      </trkpt>
      <trkpt lat="48.14493" lon="7.27823">
        <ele>393</ele>
        <time>2021-04-26T14:49:04Z</time>
      </trkpt>
      <trkpt lat="48.14557" lon="7.27664">
        <ele>410</ele>
        <time>2013-11-19T09:16:15Z</time>
      </trkpt>
      <trkpt lat="48.14545" lon="7.27597">
        <ele>414</ele>
        <time>2013-11-19T09:17:58Z</time>
      </trkpt>
      <trkpt lat="48.1455" lon="7.2754">
        <ele>416</ele>
        <time>2021-04-26T14:49:19Z</time>
      </trkpt>
      <trkpt lat="48.14583" lon="7.27465">
        <ele>430</ele>
        <time>2013-11-19T09:19:34Z</time>
      </trkpt>
      <trkpt lat="48.14582" lon="7.27417">
        <ele>433</ele>
        <time>2021-04-26T14:49:29Z</time>
      </trkpt>
      <trkpt lat="48.14568" lon="7.27362">
        <ele>433</ele>
        <time>2021-04-26T14:49:34Z</time>
      </trkpt>
      <trkpt lat="48.14555" lon="7.2729">
        <ele>437</ele>
        <time>2013-11-19T09:20:57Z</time>
      </trkpt>
      <trkpt lat="48.14544" lon="7.27178">
        <ele>451</ele>
        <time>2013-11-19T09:22:30Z</time>
      </trkpt>
      <trkpt lat="48.1448" lon="7.26989">
        <ele>454</ele>
        <time>2013-11-19T09:24:03Z</time>
      </trkpt>
      <trkpt lat="48.14474" lon="7.26927">
        <ele>457</ele>
        <time>2013-11-19T09:30:06Z</time>
      </trkpt>
      <trkpt lat="48.14488" lon="7.26793">
        <ele>470</ele>
        <time>2021-04-26T14:49:59Z</time>
      </trkpt>
      <trkpt lat="48.14501" lon="7.26772">
        <ele>474</ele>
        <time>2013-11-19T09:31:41Z</time>
      </trkpt>
      <trkpt lat="48.14565" lon="7.26772">
        <ele>485</ele>
        <time>2013-11-19T09:50:13Z</time>
      </trkpt>
      <trkpt lat="48.1474" lon="7.26809">
        <ele>530</ele>
        <time>2013-11-19T09:52:24Z</time>
      </trkpt>
      <trkpt lat="48.1482" lon="7.26837">
        <ele>544</ele>
        <time>2013-11-19T09:56:04Z</time>
      </trkpt>
      <trkpt lat="48.14941" lon="7.26956">
        <ele>569</ele>
        <time>2021-04-26T14:50:24Z</time>
      </trkpt>
      <trkpt lat="48.14969" lon="7.26971">
        <ele>574</ele>
        <time>2013-11-19T09:57:40Z</time>
      </trkpt>
      <trkpt lat="48.15065" lon="7.26914">
        <ele>568</ele>
        <time>2013-11-19T10:01:00Z</time>
      </trkpt>
      <trkpt lat="48.15175" lon="7.26916">
        <ele>572</ele>
        <time>2013-11-19T10:03:44Z</time>
      </trkpt>
      <trkpt lat="48.1526" lon="7.26962">
        <ele>575</ele>
        <time>2013-11-19T10:04:48Z</time>
      </trkpt>
      <trkpt lat="48.15333" lon="7.27039">
        <ele>582</ele>
        <time>2013-11-19T10:05:56Z</time>
      </trkpt>
      <trkpt lat="48.15365" lon="7.27107">
        <ele>591</ele>
        <time>2021-04-26T14:50:54Z</time>
      </trkpt>
      <trkpt lat="48.15378" lon="7.27156">
        <ele>598</ele>
        <time>2013-11-19T10:07:43Z</time>
      </trkpt>
      <trkpt lat="48.15376" lon="7.27257">
        <ele>608</ele>
        <time>2013-11-19T10:10:58Z</time>
      </trkpt>
      <trkpt lat="48.15363" lon="7.27295">
        <ele>610</ele>
        <time>2021-04-26T14:51:09Z</time>
      </trkpt>
      <trkpt lat="48.15413" lon="7.27348">
        <ele>620</ele>
        <time>2013-11-19T10:12:35Z</time>
      </trkpt>
      <trkpt lat="48.15543" lon="7.27393">
        <ele>637</ele>
        <time>2013-11-19T10:14:15Z</time>
      </trkpt>
      <trkpt lat="48.15601" lon="7.27443">
        <ele>645</ele>
        <time>2013-11-19T10:16:16Z</time>
      </trkpt>
      <trkpt lat="48.15694" lon="7.27449">
        <ele>653</ele>
        <time>2013-11-19T10:18:14Z</time>
      </trkpt>
      <trkpt lat="48.15736" lon="7.27495">
        <ele>659</ele>
        <time>2021-04-26T14:51:34Z</time>
      </trkpt>
      <trkpt lat="48.15815" lon="7.27471">
        <ele>658</ele>
        <time>2013-11-19T10:20:07Z</time>
      </trkpt>
      <trkpt lat="48.15904" lon="7.27462">
        <ele>655</ele>
        <time>2013-11-19T10:21:47Z</time>
      </trkpt>
      <trkpt lat="48.1599" lon="7.27442">
        <ele>649</ele>
        <time>2013-11-19T10:24:22Z</time>
      </trkpt>
      <trkpt lat="48.16094" lon="7.27376">
        <ele>638</ele>
        <time>2013-11-19T10:25:39Z</time>
      </trkpt>
      <trkpt lat="48.16161" lon="7.27357">
        <ele>636</ele>
        <time>2013-11-19T10:26:52Z</time>
      </trkpt>
      <trkpt lat="48.16211" lon="7.27346">
        <ele>635</ele>
        <time>2021-04-26T14:52:04Z</time>
      </trkpt>
      <trkpt lat="48.16243" lon="7.27323">
        <ele>635</ele>
        <time>2013-11-19T10:28:01Z</time>
      </trkpt>
      <trkpt lat="48.16314" lon="7.27221">
        <ele>655</ele>
        <time>2013-11-19T10:29:45Z</time>
      </trkpt>
      <trkpt lat="48.16406" lon="7.27129">
        <ele>657</ele>
        <time>2013-11-19T10:31:10Z</time>
      </trkpt>
      <trkpt lat="48.16495" lon="7.27088">
        <ele>661</ele>
        <time>2013-11-19T10:32:27Z</time>
      </trkpt>
      <trkpt lat="48.16539" lon="7.27007">
        <ele>668</ele>
        <time>2013-11-19T10:33:48Z</time>
      </trkpt>
      <trkpt lat="48.16555" lon="7.26974">
        <ele>669</ele>
        <time>2021-04-26T14:52:34Z</time>
      </trkpt>
      <trkpt lat="48.16604" lon="7.26928">
        <ele>664</ele>
        <time>2013-11-19T10:35:10Z</time>
      </trkpt>
      <trkpt lat="48.16646" lon="7.26913">
        <ele>658</ele>
        <time>2013-11-19T10:36:32Z</time>
      </trkpt>
      <trkpt lat="48.16704" lon="7.26949">
        <ele>651</ele>
        <time>2021-04-26T14:52:49Z</time>
      </trkpt>
      <trkpt lat="48.16749" lon="7.26961">
        <ele>644</ele>
        <time>2021-04-26T14:52:54Z</time>
      </trkpt>
      <trkpt lat="48.16765" lon="7.26943">
        <ele>645</ele>
        <time>2013-11-19T10:37:37Z</time>
      </trkpt>
      <trkpt lat="48.16787" lon="7.26952">
        <ele>642</ele>
        <time>2021-04-26T14:53:04Z</time>
      </trkpt>
      <trkpt lat="48.16851" lon="7.26905">
        <ele>642</ele>
        <time>2013-11-19T10:38:53Z</time>
      </trkpt>
      <trkpt lat="48.16857" lon="7.26878">
        <ele>641</ele>
        <time>2021-04-26T14:53:14Z</time>
      </trkpt>
      <trkpt lat="48.17015" lon="7.2689">
        <ele>644</ele>
        <time>2013-11-19T10:41:33Z</time>
      </trkpt>
      <trkpt lat="48.1727" lon="7.26916">
        <ele>670</ele>
        <time>2013-11-19T10:47:02Z</time>
      </trkpt>
      <trkpt lat="48.17333" lon="7.26912">
        <ele>674</ele>
        <time>2013-11-19T10:48:15Z</time>
      </trkpt>
      <trkpt lat="48.17441" lon="7.26848">
        <ele>673</ele>
        <time>2013-11-19T10:49:33Z</time>
      </trkpt>
      <trkpt lat="48.17427" lon="7.26759">
        <ele>679</ele>
        <time>2013-11-19T10:51:18Z</time>
      </trkpt>
      <trkpt lat="48.17478" lon="7.26553">
        <ele>684</ele>
        <time>2013-11-19T10:55:43Z</time>
      </trkpt>
      <trkpt lat="48.17548" lon="7.26534">
        <ele>691</ele>
        <time>2013-11-19T10:57:25Z</time>
      </trkpt>
      <trkpt lat="48.17618" lon="7.26441">
        <ele>688</ele>
        <time>2013-11-19T10:58:36Z</time>
      </trkpt>
      <trkpt lat="48.17658" lon="7.26368">
        <ele>689</ele>
        <time>2013-11-19T10:59:45Z</time>
      </trkpt>
      <trkpt lat="48.17673" lon="7.26275">
        <ele>689</ele>
        <time>2021-04-26T14:54:04Z</time>
      </trkpt>
      <trkpt lat="48.17694" lon="7.26245">
        <ele>689</ele>
        <time>2013-11-19T11:00:58Z</time>
      </trkpt>
      <trkpt lat="48.17774" lon="7.26184">
        <ele>692</ele>
        <time>2013-11-19T11:02:14Z</time>
      </trkpt>
      <trkpt lat="48.17882" lon="7.26112">
        <ele>694</ele>
        <time>2013-11-19T11:03:29Z</time>
      </trkpt>
      <trkpt lat="48.17938" lon="7.26024">
        <ele>691</ele>
        <time>2013-11-19T11:04:56Z</time>
      </trkpt>
      <trkpt lat="48.17966" lon="7.25941">
        <ele>689</ele>
        <time>2013-11-19T11:06:11Z</time>
      </trkpt>
      <trkpt lat="48.18071" lon="7.25828">
        <ele>687</ele>
        <time>2013-11-19T11:07:31Z</time>
      </trkpt>
      <trkpt lat="48.18" lon="7.25743">
        <ele>677</ele>
        <time>2013-11-19T11:09:20Z</time>
      </trkpt>
      <trkpt lat="48.17883" lon="7.25621">
        <ele>657</ele>
        <time>2013-11-19T11:10:37Z</time>
      </trkpt>
      <trkpt lat="48.17861" lon="7.25577">
        <ele>655</ele>
        <time>2013-11-19T11:11:45Z</time>
      </trkpt>
      <trkpt lat="48.17887" lon="7.25475">
        <ele>666</ele>
        <time>2021-04-26T14:54:54Z</time>
      </trkpt>
      <trkpt lat="48.17957" lon="7.25407">
        <ele>698</ele>
        <time>2013-11-19T11:33:16Z</time>
      </trkpt>
      <trkpt lat="48.1788" lon="7.25473">
        <ele>664</ele>
        <time>2013-11-19T11:33:42Z</time>
      </trkpt>
      <trkpt lat="48.17844" lon="7.255">
        <ele>650</ele>
        <time>2013-11-19T12:12:46Z</time>
      </trkpt>
      <trkpt lat="48.1791" lon="7.25721">
        <ele>653</ele>
        <time>2013-11-19T12:41:22Z</time>
      </trkpt>
      <trkpt lat="48.1785" lon="7.25698">
        <ele>638</ele>
        <time>2013-11-19T12:44:42Z</time>
      </trkpt>
      <trkpt lat="48.17718" lon="7.25712">
        <ele>604</ele>
        <time>2013-11-19T12:46:32Z</time>
      </trkpt>
      <trkpt lat="48.17541" lon="7.25698">
        <ele>574</ele>
        <time>2013-11-19T12:50:04Z</time>
      </trkpt>
      <trkpt lat="48.17445" lon="7.25723">
        <ele>555</ele>
        <time>2013-11-19T12:51:23Z</time>
      </trkpt>
      <trkpt lat="48.1734" lon="7.25841">
        <ele>530</ele>
        <time>2013-11-19T12:53:34Z</time>
      </trkpt>
      <trkpt lat="48.17228" lon="7.2579">
        <ele>514</ele>
        <time>2013-11-19T12:58:05Z</time>
      </trkpt>
      <trkpt lat="48.17159" lon="7.25784">
        <ele>505</ele>
        <time>2013-11-19T12:59:54Z</time>
      </trkpt>
      <trkpt lat="48.17087" lon="7.25781">
        <ele>499</ele>
        <time>2013-11-19T13:01:42Z</time>
      </trkpt>
      <trkpt lat="48.17" lon="7.25711">
        <ele>473</ele>
        <time>2013-11-19T13:03:08Z</time>
      </trkpt>
      <trkpt lat="48.16909" lon="7.25704">
        <ele>463</ele>
        <time>2013-11-19T13:04:33Z</time>
      </trkpt>
      <trkpt lat="48.16708" lon="7.25819">
        <ele>434</ele>
        <time>2013-11-19T13:07:26Z</time>
      </trkpt>
      <trkpt lat="48.16643" lon="7.25881">
        <ele>417</ele>
        <time>2013-11-19T13:08:39Z</time>
      </trkpt>
      <trkpt lat="48.16573" lon="7.25908">
        <ele>406</ele>
        <time>2013-11-19T13:09:57Z</time>
      </trkpt>
      <trkpt lat="48.16473" lon="7.25905">
        <ele>401</ele>
        <time>2013-11-19T13:11:15Z</time>
      </trkpt>
      <trkpt lat="48.16459" lon="7.25894">
        <ele>400</ele>
        <time>2021-04-26T14:56:29Z</time>
      </trkpt>
      <trkpt lat="48.16392" lon="7.25793">
        <ele>397</ele>
        <time>2013-11-19T13:12:32Z</time>
      </trkpt>
      <trkpt lat="48.16338" lon="7.25776">
        <ele>390</ele>
        <time>2013-11-19T13:13:49Z</time>
      </trkpt>
      <trkpt lat="48.16266" lon="7.25808">
        <ele>375</ele>
        <time>2013-11-19T13:15:07Z</time>
      </trkpt>
      <trkpt lat="48.16176" lon="7.25823">
        <ele>368</ele>
        <time>2013-11-19T13:17:28Z</time>
      </trkpt>
      <trkpt lat="48.16071" lon="7.25903">
        <ele>370</ele>
        <time>2013-11-19T13:18:38Z</time>
      </trkpt>
      <trkpt lat="48.16023" lon="7.25902">
        <ele>365</ele>
        <time>2013-11-19T13:20:03Z</time>
      </trkpt>
      <trkpt lat="48.15874" lon="7.25853">
        <ele>348</ele>
        <time>2013-11-19T13:21:17Z</time>
      </trkpt>
      <trkpt lat="48.15788" lon="7.25816">
        <ele>343</ele>
        <time>2013-11-19T13:22:34Z</time>
      </trkpt>
      <trkpt lat="48.15709" lon="7.25754">
        <ele>331</ele>
        <time>2013-11-19T13:23:43Z</time>
      </trkpt>
      <trkpt lat="48.15624" lon="7.25709">
        <ele>327</ele>
        <time>2013-11-19T13:24:52Z</time>
      </trkpt>
      <trkpt lat="48.15536" lon="7.25684">
        <ele>321</ele>
        <time>2013-11-19T13:30:15Z</time>
      </trkpt>
      <trkpt lat="48.15433" lon="7.25663">
        <ele>318</ele>
        <time>2013-11-19T13:32:37Z</time>
      </trkpt>
      <trkpt lat="48.15273" lon="7.25633">
        <ele>311</ele>
        <time>2013-11-19T13:33:48Z</time>
      </trkpt>
      <trkpt lat="48.15184" lon="7.25616">
        <ele>307</ele>
        <time>2013-11-19T13:35:00Z</time>
      </trkpt>
      <trkpt lat="48.15068" lon="7.25621">
        <ele>298</ele>
        <time>2013-11-19T13:36:05Z</time>
      </trkpt>
      <trkpt lat="48.14886" lon="7.2569">
        <ele>288</ele>
        <time>2013-11-19T13:37:14Z</time>
      </trkpt>
      <trkpt lat="48.14832" lon="7.25705">
        <ele>282</ele>
        <time>2013-11-19T13:39:44Z</time>
      </trkpt>
      <trkpt lat="48.14784" lon="7.25639">
        <ele>271</ele>
        <time>2013-11-19T13:41:04Z</time>
      </trkpt>
      <trkpt lat="48.14749" lon="7.25633">
        <ele>267</ele>
        <time>2021-04-26T14:58:04Z</time>
      </trkpt>
      <trkpt lat="48.14665" lon="7.25681">
        <ele>264</ele>
        <time>2013-11-19T13:42:18Z</time>
      </trkpt>
      <trkpt lat="48.14668" lon="7.25551">
        <ele>261</ele>
        <time>2013-11-19T13:44:40Z</time>
      </trkpt>
      <trkpt lat="48.14668" lon="7.25551">
        <ele>261</ele>
        <time>2013-11-19T13:44:40Z</time>
      </trkpt>
      <trkpt lat="48.14668" lon="7.25551">
        <ele>261</ele>
        <time>2013-11-19T13:44:40Z</time>
      </trkpt>
      <trkpt lat="48.14668" lon="7.25551">
        <ele>261</ele>
        <time>2013-11-19T13:44:43Z</time>
      </trkpt>
      <trkpt lat="48.14668" lon="7.25551">
        <ele>261</ele>
        <time>2013-11-19T13:44:43Z</time>
      </trkpt>
    </trkseg>
  </trk>
</gpx>